Time;durP1;ratioP1;P1;durP2;ratioP2;P2;SDS_P1;SDS_P2;PMS_P1;PMS_P2;Temp;Humidity;BMP_temperature;BMP_pressure;BME280_temperature;BME280_humidity;BME280_pressure;Samples;Min_cycle;Max_cycle;Signal;HPM_P1;HPM_P2
2023/04/27 00:01:11;;;;;;;10.02;5.32;;;;;;;4.93;100.00;101744.25;4884315;29;20444;-78
2023/04/27 00:03:40;;;;;;;13.45;5.15;;;;;;;4.87;100.00;101743.63;4887548;29;20033;-78
2023/04/27 00:06:07;;;;;;;13.57;5.72;;;;;;;4.91;100.00;101739.84;4896266;29;20037;-78
2023/04/27 00:08:33;;;;;;;9.70;5.20;;;;;;;4.92;100.00;101742.50;4908436;29;20087;-78
2023/04/27 00:10:59;;;;;;;14.23;5.60;;;;;;;4.95;100.00;101738.75;4870980;29;20040;-78
2023/04/27 00:13:25;;;;;;;11.98;5.50;;;;;;;4.80;100.00;101737.56;4906637;29;20060;-78
2023/04/27 00:15:51;;;;;;;10.02;5.22;;;;;;;4.89;100.00;101737.19;4897127;29;20095;-78
2023/04/27 00:18:17;;;;;;;11.93;5.60;;;;;;;4.86;100.00;101734.59;4890759;29;20036;-78
2023/04/27 00:20:43;;;;;;;9.35;5.35;;;;;;;4.75;100.00;101734.16;4889914;29;20044;-78
2023/04/27 00:23:08;;;;;;;15.10;6.15;;;;;;;4.81;100.00;101735.75;4892745;29;20481;-77
2023/04/27 00:25:34;;;;;;;14.38;5.45;;;;;;;4.65;100.00;101725.50;4892673;29;20100;-77
2023/04/27 00:27:59;;;;;;;9.88;5.35;;;;;;;4.51;100.00;101728.78;4894962;29;20044;-77
2023/04/27 00:30:25;;;;;;;11.25;5.45;;;;;;;4.53;100.00;101735.03;4877234;29;20047;-78
2023/04/27 00:32:50;;;;;;;12.05;5.07;;;;;;;4.55;100.00;101741.25;4883243;29;20067;-78
2023/04/27 00:35:16;;;;;;;16.65;5.50;;;;;;;4.27;100.00;101725.22;4909865;29;20041;-78
2023/04/27 00:37:41;;;;;;;12.70;6.05;;;;;;;4.30;100.00;101730.50;4900519;29;20040;-78
2023/04/27 00:40:10;;;;;;;16.42;6.03;;;;;;;4.41;100.00;101727.38;4868966;29;20040;-77
2023/04/27 00:42:36;;;;;;;20.05;6.05;;;;;;;4.37;100.00;101725.72;4897071;29;20052;-77
2023/04/27 00:45:02;;;;;;;20.30;6.35;;;;;;;4.37;100.00;101736.56;4889993;29;20092;-77
2023/04/27 00:47:29;;;;;;;12.27;5.95;;;;;;;4.33;100.00;101732.19;4908721;29;20107;-77
2023/04/27 00:49:55;;;;;;;14.07;5.63;;;;;;;4.29;100.00;101733.28;4888163;29;20661;-77
2023/04/27 00:52:20;;;;;;;12.55;6.13;;;;;;;4.31;100.00;101732.28;4891964;29;20044;-77
2023/04/27 00:54:49;;;;;;;10.82;5.63;;;;;;;4.30;100.00;101730.50;4900786;29;20417;-78
2023/04/27 00:57:15;;;;;;;11.55;5.88;;;;;;;4.34;100.00;101725.84;4898768;29;20103;-78
2023/04/27 00:59:40;;;;;;;13.52;6.13;;;;;;;4.28;100.00;101739.63;4893792;29;20037;-78
2023/04/27 01:02:06;;;;;;;17.20;6.22;;;;;;;4.19;100.00;101739.03;4889481;29;20044;-76
2023/04/27 01:04:32;;;;;;;14.88;6.40;;;;;;;4.30;100.00;101737.78;4895235;29;20577;-77
2023/04/27 01:06:58;;;;;;;10.30;5.78;;;;;;;4.12;100.00;101736.66;4873255;29;20125;-77
2023/04/27 01:09:23;;;;;;;12.90;6.20;;;;;;;4.05;100.00;101730.59;4886900;29;20075;-78
2023/04/27 01:11:49;;;;;;;17.10;5.93;;;;;;;4.15;100.00;101737.41;4859618;29;20193;-77
2023/04/27 01:14:16;;;;;;;12.07;5.85;;;;;;;4.15;100.00;101734.69;4869902;29;20605;-77
2023/04/27 01:16:41;;;;;;;13.50;6.40;;;;;;;4.05;100.00;101736.88;4882464;29;20068;-76
2023/04/27 01:19:09;;;;;;;16.73;6.35;;;;;;;3.99;100.00;101733.50;4865221;29;20040;-76
2023/04/27 01:21:35;;;;;;;11.63;6.03;;;;;;;3.93;100.00;101733.72;4879044;29;20045;-76
2023/04/27 01:24:00;;;;;;;13.38;6.72;;;;;;;3.94;100.00;101733.69;4891960;29;20051;-76
2023/04/27 01:26:26;;;;;;;20.00;6.38;;;;;;;3.96;100.00;101736.34;4852239;29;20478;-75
2023/04/27 01:28:51;;;;;;;15.75;6.95;;;;;;;3.95;100.00;101727.34;4863398;29;20119;-75
2023/04/27 01:31:17;;;;;;;10.50;6.07;;;;;;;3.88;100.00;101738.44;4855949;29;20033;-75
2023/04/27 01:33:42;;;;;;;13.63;6.40;;;;;;;3.96;100.00;101739.03;4880310;29;20557;-75
2023/04/27 01:36:08;;;;;;;15.05;6.60;;;;;;;3.71;100.00;101739.06;4843251;29;20033;-76
2023/04/27 01:38:34;;;;;;;20.67;6.65;;;;;;;3.63;100.00;101732.09;4882331;29;20047;-76
2023/04/27 01:41:04;;;;;;;13.73;5.55;;;;;;;3.71;100.00;101734.53;4862652;29;20429;-75
2023/04/27 01:43:31;;;;;;;10.45;6.20;;;;;;;3.74;100.00;101742.53;4860549;29;20041;-75
2023/04/27 01:46:08;;;;;;;12.75;6.40;;;;;;;3.66;100.00;101728.41;4858070;29;20461;-75
2023/04/27 01:48:34;;;;;;;26.88;7.30;;;;;;;3.75;100.00;101733.47;4870600;29;20043;-75
2023/04/27 01:51:03;;;;;;;15.00;6.78;;;;;;;3.55;100.00;101719.78;4870118;29;20036;-77
2023/04/27 01:53:29;;;;;;;17.33;7.20;;;;;;;3.58;100.00;101728.66;4862897;29;20072;-76
2023/04/27 01:55:55;;;;;;;15.43;6.28;;;;;;;3.56;100.00;101721.53;4878248;29;20032;-76
2023/04/27 01:58:21;;;;;;;12.45;5.95;;;;;;;3.61;100.00;101730.38;4893359;29;20081;-75
2023/04/27 02:00:46;;;;;;;19.83;7.28;;;;;;;3.55;100.00;101725.19;4886832;29;20037;-76
2023/04/27 02:03:12;;;;;;;12.95;6.55;;;;;;;3.49;100.00;101728.97;4888607;29;20454;-76
2023/04/27 02:05:37;;;;;;;14.30;6.38;;;;;;;3.49;100.00;101732.59;4876855;29;20124;-75
2023/04/27 02:08:03;;;;;;;19.17;6.18;;;;;;;3.46;100.00;101729.09;4876910;29;20044;-76
2023/04/27 02:10:28;;;;;;;15.68;6.60;;;;;;;3.40;100.00;101729.31;4883908;29;20029;-76
2023/04/27 02:12:54;;;;;;;17.13;7.40;;;;;;;3.47;100.00;101728.16;4880572;29;20132;-76
2023/04/27 02:15:19;;;;;;;23.73;8.25;;;;;;;3.39;100.00;101730.25;4861562;29;20037;-76
2023/04/27 02:17:45;;;;;;;18.55;6.90;;;;;;;3.42;100.00;101728.31;4888802;29;20038;-76
2023/04/27 02:20:15;;;;;;;17.88;6.97;;;;;;;3.33;100.00;101728.66;4868347;29;20151;-76
2023/04/27 02:22:44;;;;;;;19.45;7.80;;;;;;;3.30;100.00;101720.63;4870417;29;20346;-76
2023/04/27 02:25:10;;;;;;;13.77;7.78;;;;;;;3.18;100.00;101718.34;4855883;29;20036;-76
2023/04/27 02:27:37;;;;;;;17.35;7.65;;;;;;;3.22;100.00;101712.78;4886520;29;20036;-76
2023/04/27 02:30:07;;;;;;;16.13;7.45;;;;;;;3.16;100.00;101725.63;4878549;29;20036;-76
2023/04/27 02:32:33;;;;;;;15.32;7.20;;;;;;;3.10;100.00;101721.34;4877212;29;20504;-76
2023/04/27 02:34:58;;;;;;;16.77;8.23;;;;;;;3.08;100.00;101721.38;4855665;29;20049;-76
2023/04/27 02:37:24;;;;;;;17.33;8.63;;;;;;;3.00;100.00;101711.75;4860610;29;20052;-77
2023/04/27 02:39:50;;;;;;;21.92;7.75;;;;;;;2.89;100.00;101698.59;4870073;29;20041;-77
2023/04/27 02:42:15;;;;;;;13.32;8.00;;;;;;;2.91;100.00;101694.00;4879085;29;20055;-76
2023/04/27 02:44:41;;;;;;;17.35;8.20;;;;;;;2.97;100.00;101706.44;4868361;29;20088;-77
2023/04/27 02:47:06;;;;;;;18.70;8.30;;;;;;;3.02;100.00;101704.47;4872920;29;20041;-76
2023/04/27 02:49:32;;;;;;;16.40;8.10;;;;;;;2.97;100.00;101703.72;4877418;29;20096;-76
2023/04/27 02:51:57;;;;;;;15.30;8.25;;;;;;;2.82;100.00;101694.31;4877202;29;20045;-76
2023/04/27 02:54:23;;;;;;;22.08;8.32;;;;;;;2.80;100.00;101702.47;4882545;29;20096;-76
2023/04/27 02:56:48;;;;;;;17.95;8.15;;;;;;;2.87;100.00;101704.06;4863447;29;20397;-76
2023/04/27 02:59:13;;;;;;;20.55;8.40;;;;;;;2.85;100.00;101695.06;4876528;29;20056;-76
2023/04/27 03:01:39;;;;;;;19.38;8.07;;;;;;;2.98;100.00;101706.38;4876412;29;20049;-74
2023/04/27 03:04:04;;;;;;;15.85;8.35;;;;;;;3.03;100.00;101712.50;4877970;29;20057;-76
2023/04/27 03:06:30;;;;;;;17.77;8.55;;;;;;;3.06;100.00;101716.94;4892800;29;20057;-76
2023/04/27 03:08:55;;;;;;;18.52;8.50;;;;;;;3.05;100.00;101709.75;4882161;29;20049;-76
2023/04/27 03:11:21;;;;;;;21.05;7.70;;;;;;;3.02;100.00;101708.06;4897184;29;20040;-76
2023/04/27 03:13:46;;;;;;;23.70;8.93;;;;;;;3.02;100.00;101708.06;4894940;29;20040;-76
2023/04/27 03:16:12;;;;;;;16.10;8.93;;;;;;;3.07;100.00;101707.91;4876286;29;20036;-76
2023/04/27 03:18:38;;;;;;;25.35;9.43;;;;;;;3.08;100.00;101712.38;4902690;29;20037;-76
2023/04/27 03:21:08;;;;;;;16.17;8.98;;;;;;;2.97;100.00;101714.53;4889168;29;20179;-75
2023/04/27 03:23:34;;;;;;;17.50;8.38;;;;;;;2.99;100.00;101710.88;4895809;29;20037;-76
2023/04/27 03:26:07;;;;;;;20.80;8.55;;;;;;;2.91;100.00;101707.53;4857480;29;20037;-75
2023/04/27 03:28:33;;;;;;;17.90;8.82;;;;;;;2.82;100.00;101706.03;4871355;29;20405;-75
2023/04/27 03:30:59;;;;;;;20.35;8.52;;;;;;;2.65;100.00;101698.44;4887078;29;20029;-76
2023/04/27 03:33:25;;;;;;;12.60;7.10;;;;;;;2.64;100.00;101710.22;4896921;29;20043;-76
2023/04/27 03:35:56;;;;;;;19.20;8.00;;;;;;;2.65;100.00;101711.97;4904151;29;20044;-76
2023/04/27 03:38:21;;;;;;;18.05;8.48;;;;;;;2.72;100.00;101712.66;4894915;29;20047;-76
2023/04/27 03:40:47;;;;;;;15.48;8.00;;;;;;;2.85;100.00;101710.44;4872245;29;20037;-76
2023/04/27 03:43:12;;;;;;;19.30;7.50;;;;;;;2.87;100.00;101722.97;4879871;29;20485;-76
2023/04/27 03:45:37;;;;;;;16.75;8.10;;;;;;;2.80;100.00;101717.81;4865996;29;20089;-76
2023/04/27 03:48:03;;;;;;;18.63;8.55;;;;;;;2.78;100.00;101717.88;4869566;29;20136;-75
2023/04/27 03:50:29;;;;;;;21.10;8.57;;;;;;;2.61;100.00;101721.13;4882157;29;20041;-75
2023/04/27 03:52:54;;;;;;;21.80;8.43;;;;;;;2.55;100.00;101718.59;4870890;29;20441;-75
2023/04/27 03:55:20;;;;;;;16.52;7.70;;;;;;;2.64;100.00;101722.81;4891601;29;20052;-75
2023/04/27 03:57:45;;;;;;;22.27;8.80;;;;;;;2.74;100.00;101717.09;4872743;29;20048;-77
2023/04/27 04:00:14;;;;;;;16.00;8.25;;;;;;;2.67;100.00;101726.34;4892052;29;20092;-76
2023/04/27 04:02:40;;;;;;;16.92;8.43;;;;;;;2.67;100.00;101720.94;4891207;29;20055;-75
2023/04/27 04:05:07;;;;;;;27.77;8.25;;;;;;;2.75;100.00;101716.16;4898939;29;20067;-75
2023/04/27 04:07:33;;;;;;;17.80;9.00;;;;;;;2.65;100.00;101711.09;4892727;29;20036;-75
2023/04/27 04:09:58;;;;;;;15.35;8.77;;;;;;;2.72;100.00;101729.78;4893252;29;20850;-75
2023/04/27 04:12:25;;;;;;;19.20;8.05;;;;;;;2.64;100.00;101723.72;4892208;29;20092;-76
2023/04/27 04:14:51;;;;;;;26.10;8.13;;;;;;;2.67;100.00;101731.75;4848914;29;20377;-75
2023/04/27 04:17:16;;;;;;;19.75;8.43;;;;;;;2.69;100.00;101728.97;4866307;29;20067;-75
2023/04/27 04:19:41;;;;;;;20.85;8.07;;;;;;;2.70;100.00;101726.22;4879537;29;20037;-76
2023/04/27 04:22:10;;;;;;;19.17;8.20;;;;;;;2.43;100.00;101721.69;4873544;29;20052;-75
2023/04/27 04:24:36;;;;;;;21.95;8.02;;;;;;;2.37;100.00;101726.34;4873322;29;20047;-76
2023/04/27 04:27:02;;;;;;;15.77;8.05;;;;;;;2.42;100.00;101731.63;4888067;29;20489;-76
2023/04/27 04:29:27;;;;;;;15.07;8.05;;;;;;;2.42;100.00;101739.72;4881714;29;20049;-76
2023/04/27 04:31:54;;;;;;;16.98;8.25;;;;;;;2.49;100.00;101744.03;4884356;29;20064;-76
2023/04/27 04:34:20;;;;;;;18.65;7.82;;;;;;;2.51;100.00;101744.84;4893712;29;20045;-76
2023/04/27 04:36:46;;;;;;;13.15;7.88;;;;;;;2.56;100.00;101745.59;4881626;29;20041;-76
2023/04/27 04:39:12;;;;;;;22.27;8.18;;;;;;;2.56;100.00;101755.53;4881623;29;20045;-76
2023/04/27 04:41:37;;;;;;;16.67;7.45;;;;;;;2.74;100.00;101759.47;4883959;29;20379;-76
2023/04/27 04:44:04;;;;;;;24.52;8.40;;;;;;;2.84;100.00;101765.47;4884101;29;20051;-76
2023/04/27 04:46:29;;;;;;;15.77;8.18;;;;;;;2.88;100.00;101761.72;4892628;29;20072;-76
2023/04/27 04:48:55;;;;;;;18.35;7.57;;;;;;;2.93;100.00;101760.63;4852449;29;20472;-76
2023/04/27 04:51:20;;;;;;;18.95;7.70;;;;;;;2.96;100.00;101756.94;4886871;29;20497;-76
2023/04/27 04:53:46;;;;;;;19.73;8.15;;;;;;;3.00;100.00;101764.03;4879289;29;20089;-76
2023/04/27 04:56:12;;;;;;;19.90;8.25;;;;;;;3.00;100.00;101766.75;4859708;29;20115;-76
2023/04/27 04:58:38;;;;;;;17.25;7.93;;;;;;;2.97;100.00;101761.44;4891560;29;20048;-76
2023/04/27 05:01:04;;;;;;;21.20;7.53;;;;;;;2.94;100.00;101770.53;4882266;29;20116;-76
2023/04/27 05:03:29;;;;;;;26.67;9.20;;;;;;;2.94;100.00;101767.81;4896383;29;20040;-76
2023/04/27 05:05:55;;;;;;;18.67;7.70;;;;;;;3.08;100.00;101775.50;4888839;29;20393;-77
2023/04/27 05:08:20;;;;;;;19.42;7.82;;;;;;;3.09;100.00;101768.25;4883688;29;20437;-77
2023/04/27 05:10:53;;;;;;;17.95;7.53;;;;;;;3.08;100.00;101775.50;4894235;29;20032;-77
2023/04/27 05:13:19;;;;;;;14.40;7.53;;;;;;;3.09;100.00;101766.41;4894442;29;20048;-77
2023/04/27 05:15:45;;;;;;;14.40;7.65;;;;;;;3.10;100.00;101779.03;4894048;29;20330;-76
2023/04/27 05:18:11;;;;;;;19.25;8.90;;;;;;;3.09;100.00;101782.66;4908687;29;20048;-77
2023/04/27 05:20:39;;;;;;;14.48;7.40;;;;;;;3.09;100.00;101781.78;4870415;29;20040;-75
2023/04/27 05:23:04;;;;;;;20.73;8.52;;;;;;;3.23;100.00;101782.22;4900176;29;20397;-76
2023/04/27 05:25:40;;;;;;;15.82;7.40;;;;;;;3.36;100.00;101774.56;4872033;29;20096;-76
2023/04/27 05:28:06;;;;;;;18.17;7.90;;;;;;;3.77;100.00;101774.94;4909278;29;20059;-76
2023/04/27 05:30:31;;;;;;;18.10;8.95;;;;;;;4.02;100.00;101777.63;4881275;29;20039;-76
2023/04/27 05:32:57;;;;;;;17.25;8.27;;;;;;;4.13;100.00;101774.53;4889718;29;20412;-75
2023/04/27 05:35:22;;;;;;;18.90;7.20;;;;;;;4.38;100.00;101779.91;4891435;29;20404;-75
2023/04/27 05:37:48;;;;;;;18.05;8.65;;;;;;;4.53;100.00;101782.97;4896652;29;20040;-78
2023/04/27 05:40:14;;;;;;;17.88;8.55;;;;;;;4.83;100.00;101785.41;4881092;29;20044;-76
2023/04/27 05:42:40;;;;;;;21.27;8.27;;;;;;;5.06;100.00;101785.34;4891381;29;20446;-75
2023/04/27 05:45:06;;;;;;;17.00;8.18;;;;;;;5.25;100.00;101779.19;4882332;29;20097;-77
2023/04/27 05:47:31;;;;;;;16.83;7.57;;;;;;;5.53;100.00;101789.75;4918658;29;20046;-74
2023/04/27 05:49:57;;;;;;;18.95;7.35;;;;;;;5.47;100.00;101795.44;4898816;29;20096;-76
2023/04/27 05:52:28;;;;;;;13.13;7.22;;;;;;;5.66;100.00;101788.25;4884679;29;20053;-76
2023/04/27 05:54:53;;;;;;;16.85;7.60;;;;;;;5.70;100.00;101795.31;4886916;29;20103;-77
2023/04/27 05:57:19;;;;;;;22.98;7.43;;;;;;;5.75;100.00;101792.38;4888354;29;20040;-76
2023/04/27 05:59:44;;;;;;;16.10;6.97;;;;;;;5.99;100.00;101795.03;4889956;29;20396;-76
2023/04/27 06:02:10;;;;;;;11.10;6.88;;;;;;;6.10;100.00;101799.97;4897583;29;20047;-76
2023/04/27 06:04:36;;;;;;;15.13;6.53;;;;;;;6.27;100.00;101797.38;4911974;28;20060;-75
2023/04/27 06:07:06;;;;;;;21.48;7.63;;;;;;;6.36;100.00;101790.63;4898925;29;20176;-75
2023/04/27 06:09:32;;;;;;;19.27;7.28;;;;;;;6.70;100.00;101798.06;4903605;29;20039;-76
2023/04/27 06:11:58;;;;;;;14.65;6.93;;;;;;;7.00;100.00;101802.97;4893641;29;20090;-75
2023/04/27 06:14:25;;;;;;;20.00;6.88;;;;;;;7.15;100.00;101804.09;4890921;29;20041;-75
2023/04/27 06:16:50;;;;;;;16.02;6.80;;;;;;;6.90;100.00;101801.66;4872103;29;20535;-75
2023/04/27 06:19:16;;;;;;;12.98;7.50;;;;;;;6.96;100.00;101793.22;4876988;29;20037;-75
2023/04/27 06:21:41;;;;;;;18.25;6.90;;;;;;;7.46;100.00;101791.63;4895445;29;20095;-75
2023/04/27 06:24:09;;;;;;;15.27;6.50;;;;;;;7.56;100.00;101803.84;4895426;29;20096;-75
2023/04/27 06:26:35;;;;;;;12.40;6.60;;;;;;;7.84;100.00;101795.13;4903782;29;20040;-76
2023/04/27 06:29:02;;;;;;;16.83;6.22;;;;;;;7.78;100.00;101789.97;4902341;29;20040;-75
2023/04/27 06:31:28;;;;;;;16.50;6.50;;;;;;;8.13;100.00;101794.53;4885188;29;20107;-75
2023/04/27 06:33:53;;;;;;;16.00;6.50;;;;;;;8.44;100.00;101796.50;4891653;29;20116;-77
2023/04/27 06:36:20;;;;;;;17.45;6.18;;;;;;;8.64;100.00;101792.66;4909580;29;20067;-76
2023/04/27 06:38:45;;;;;;;16.63;6.05;;;;;;;9.41;100.00;101803.75;4889447;29;20041;-76
2023/04/27 06:41:14;;;;;;;21.02;6.82;;;;;;;9.29;100.00;101798.03;4901862;29;20044;-76
2023/04/27 06:43:39;;;;;;;18.80;7.43;;;;;;;9.27;100.00;101808.19;4893282;29;20119;-75
2023/04/27 06:46:04;;;;;;;19.45;6.53;;;;;;;9.18;100.00;101798.69;4895090;29;20035;-75
2023/04/27 06:48:30;;;;;;;17.52;6.43;;;;;;;9.40;100.00;101794.69;4893317;29;20119;-75
2023/04/27 06:50:55;;;;;;;11.82;5.70;;;;;;;9.71;100.00;101795.59;4908472;29;20068;-76
2023/04/27 06:53:21;;;;;;;14.02;5.57;;;;;;;9.85;100.00;101790.16;4913456;29;20068;-76
2023/04/27 06:55:46;;;;;;;9.00;5.38;;;;;;;9.77;100.00;101800.66;4905971;29;20036;-75
2023/04/27 06:58:12;;;;;;;13.20;5.18;;;;;;;10.09;100.00;101787.75;4874697;29;20055;-76
2023/04/27 07:00:37;;;;;;;11.77;5.57;;;;;;;10.44;100.00;101784.69;4909724;29;20123;-76
2023/04/27 07:03:03;;;;;;;9.30;5.05;;;;;;;10.37;100.00;101786.06;4869462;29;20119;-75
2023/04/27 07:05:28;;;;;;;12.75;5.38;;;;;;;10.70;96.52;101789.50;4884959;29;20052;-76
2023/04/27 07:07:54;;;;;;;9.40;4.78;;;;;;;9.66;100.00;101797.75;4889623;29;20075;-75
2023/04/27 07:10:20;;;;;;;16.70;5.25;;;;;;;9.97;100.00;101788.53;4894774;29;20028;-76
2023/04/27 07:12:45;;;;;;;8.73;4.30;;;;;;;10.09;92.27;101787.75;4917786;29;20069;-76
2023/04/27 07:15:14;;;;;;;8.63;4.45;;;;;;;10.02;93.49;101783.66;4878284;29;20028;-77
2023/04/27 07:17:40;;;;;;;11.40;5.25;;;;;;;10.34;92.74;101796.34;4911779;29;20051;-76
2023/04/27 07:20:07;;;;;;;13.35;4.82;;;;;;;10.90;89.31;101786.31;4903955;29;20040;-76
2023/04/27 07:22:33;;;;;;;10.90;5.25;;;;;;;10.96;85.55;101798.75;4890584;29;20095;-77
2023/04/27 07:24:58;;;;;;;12.75;4.80;;;;;;;11.09;83.87;101804.31;4881734;29;20036;-77
2023/04/27 07:27:25;;;;;;;12.93;4.70;;;;;;;11.12;85.50;101795.88;4912617;29;20047;-77
2023/04/27 07:29:51;;;;;;;13.32;5.40;;;;;;;11.62;80.70;101790.69;4899515;29;20036;-77
2023/04/27 07:32:16;;;;;;;11.20;5.43;;;;;;;11.66;84.69;101795.88;4862646;29;20033;-74
2023/04/27 07:34:42;;;;;;;20.42;6.13;;;;;;;11.77;82.45;101787.78;4911336;29;20059;-74
2023/04/27 07:37:08;;;;;;;18.20;6.00;;;;;;;12.20;79.94;101783.91;4908765;29;20432;-76
2023/04/27 07:39:33;;;;;;;17.98;6.88;;;;;;;11.69;83.92;101786.53;4901346;29;20040;-75
2023/04/27 07:41:59;;;;;;;12.10;6.13;;;;;;;11.91;81.08;101785.94;4902812;29;20491;-76
2023/04/27 07:44:24;;;;;;;11.40;6.45;;;;;;;11.89;80.42;101782.44;4893676;29;20083;-77
2023/04/27 07:46:52;;;;;;;11.60;6.00;;;;;;;11.73;76.56;101788.97;4891930;29;20044;-77
2023/04/27 07:49:20;;;;;;;13.73;5.50;;;;;;;12.18;74.92;101776.78;4898165;29;20063;-77
2023/04/27 07:51:45;;;;;;;17.80;6.63;;;;;;;11.48;75.34;101788.88;4874481;29;20059;-77
2023/04/27 07:54:14;;;;;;;14.65;6.57;;;;;;;11.67;78.01;101783.91;4916151;29;20043;-77
2023/04/27 07:56:41;;;;;;;15.98;6.07;;;;;;;12.13;75.28;101775.25;4922975;29;20046;-77
2023/04/27 07:59:06;;;;;;;12.65;5.80;;;;;;;12.21;74.63;101780.16;4906997;29;20634;-78
2023/04/27 08:01:31;;;;;;;10.95;4.75;;;;;;;12.42;68.64;101775.00;4909487;29;20048;-80
2023/04/27 08:03:57;;;;;;;9.93;5.57;;;;;;;12.32;69.60;101772.03;4897617;29;20056;-78
2023/04/27 08:06:23;;;;;;;15.90;5.65;;;;;;;12.10;70.40;101774.56;4891975;29;20041;-77
2023/04/27 08:08:48;;;;;;;11.68;5.05;;;;;;;12.72;67.28;101767.38;4870457;29;20037;-77
2023/04/27 08:11:14;;;;;;;13.35;5.13;;;;;;;12.95;65.26;101761.06;4873802;29;20052;-77
2023/04/27 08:13:40;;;;;;;11.60;5.03;;;;;;;12.76;63.89;101771.69;4891479;29;20036;-77
2023/04/27 08:16:06;;;;;;;8.90;4.88;;;;;;;13.27;65.34;101771.50;4890337;29;20041;-79
2023/04/27 08:18:31;;;;;;;12.27;4.60;;;;;;;13.15;61.80;101769.69;4904197;29;20036;-78
2023/04/27 08:20:57;;;;;;;8.93;5.00;;;;;;;13.24;61.12;101777.25;4905196;29;20048;-79
2023/04/27 08:23:26;;;;;;;11.77;4.63;;;;;;;13.11;59.82;101768.16;4868932;29;20036;-77
2023/04/27 08:25:52;;;;;;;10.45;5.40;;;;;;;12.57;62.57;101777.63;4900428;29;20552;-77
2023/04/27 08:28:17;;;;;;;14.88;4.75;;;;;;;13.34;61.01;101778.31;4919809;29;20110;-77
2023/04/27 08:30:43;;;;;;;9.25;3.40;;;;;;;13.44;54.09;101785.88;4866726;29;20059;-78
2023/04/27 08:33:09;;;;;;;7.65;3.47;;;;;;;13.01;59.90;101779.84;4910616;29;20032;-78
2023/04/27 08:35:35;;;;;;;7.55;4.03;;;;;;;13.52;55.96;101783.44;4899700;29;20040;-78
2023/04/27 08:38:00;;;;;;;9.05;4.45;;;;;;;13.04;57.56;101767.75;4905215;29;20072;-78
2023/04/27 08:40:26;;;;;;;4.85;3.55;;;;;;;13.36;58.39;101776.38;4895751;29;20040;-78
2023/04/27 08:42:57;;;;;;;14.45;5.07;;;;;;;13.75;55.99;101755.00;4893802;29;20118;-80
2023/04/27 08:45:24;;;;;;;7.10;3.90;;;;;;;13.98;55.66;101771.59;4901238;29;20050;-81
2023/04/27 08:47:50;;;;;;;9.75;4.47;;;;;;;14.10;54.38;101762.34;4907604;29;20047;-80
2023/04/27 08:50:15;;;;;;;11.18;4.32;;;;;;;13.77;56.96;101753.00;4895937;29;20129;-79
2023/04/27 08:52:48;;;;;;;8.85;3.25;;;;;;;13.57;55.25;101757.28;4879488;29;20028;-79
2023/04/27 08:55:14;;;;;;;11.40;4.80;;;;;;;13.16;57.79;101750.31;4908224;29;20178;-79
2023/04/27 08:57:39;;;;;;;5.35;3.35;;;;;;;13.87;54.67;101739.41;4906113;29;20055;-79
2023/04/27 09:00:13;;;;;;;9.27;4.13;;;;;;;13.71;52.15;101744.38;4903292;29;20119;-79
2023/04/27 09:02:46;;;;;;;12.98;3.80;;;;;;;14.04;52.21;101751.81;4883554;29;20184;-78
2023/04/27 09:05:19;;;;;;;8.82;3.45;;;;;;;14.49;53.19;101742.72;4868757;29;20049;-78
2023/04/27 09:08:06;;;;;;;10.43;3.58;;;;;;;14.08;51.93;101742.31;4886874;29;20052;-79
2023/04/27 09:10:46;;;;;;;14.20;3.42;;;;;;;14.08;51.35;101747.81;4863305;29;20040;-80
2023/04/27 09:13:13;;;;;;;8.10;3.83;;;;;;;14.44;50.53;101745.84;4897103;29;20135;-80
2023/04/27 09:15:50;;;;;;;8.73;3.55;;;;;;;14.88;48.97;101754.25;4878985;29;20071;-80
2023/04/27 09:18:21;;;;;;;7.72;3.90;;;;;;;14.31;49.80;101748.75;4865742;29;20124;-79
2023/04/27 09:20:48;;;;;;;9.50;4.15;;;;;;;14.81;48.98;101764.06;4892625;29;20059;-80
2023/04/27 09:23:30;;;;;;;6.57;3.28;;;;;;;14.62;48.98;101759.16;4872650;29;20044;-79
2023/04/27 09:25:57;;;;;;;6.10;3.05;;;;;;;13.97;48.35;101753.31;4873571;29;20039;-79
2023/04/27 09:28:27;;;;;;;9.93;3.67;;;;;;;14.27;46.40;101749.13;4886865;29;20032;-81
2023/04/27 09:30:58;;;;;;;5.68;3.55;;;;;;;14.60;47.40;101744.66;4862436;29;20041;-79
2023/04/27 09:33:25;;;;;;;10.35;3.20;;;;;;;14.83;46.18;101745.50;4882532;29;20119;-78
2023/04/27 09:35:52;;;;;;;9.98;3.40;;;;;;;14.19;47.85;101740.59;4865190;29;20505;-78
2023/04/27 09:38:20;;;;;;;12.65;3.80;;;;;;;14.36;46.36;101751.09;4880589;29;20040;-79
2023/04/27 09:40:47;;;;;;;12.63;4.10;;;;;;;14.03;46.62;101744.56;4867575;29;20105;-79
2023/04/27 09:43:13;;;;;;;8.73;4.10;;;;;;;13.51;49.94;101740.38;4874809;29;20044;-80
2023/04/27 09:45:38;;;;;;;11.32;5.47;;;;;;;14.08;46.78;101739.56;4877651;29;20445;-80
2023/04/27 09:48:05;;;;;;;7.30;3.75;;;;;;;14.47;48.31;101719.94;4835825;29;20033;-79
2023/04/27 09:50:35;;;;;;;6.60;3.47;;;;;;;15.07;45.11;101728.78;4862058;29;20029;-80
2023/04/27 09:53:04;;;;;;;7.93;4.10;;;;;;;14.57;46.66;101709.03;4861626;29;20033;-79
2023/04/27 09:55:40;;;;;;;10.23;4.45;;;;;;;13.99;48.02;101715.53;4875657;29;20047;-80
2023/04/27 09:58:33;;;;;;;9.65;3.88;;;;;;;13.79;46.61;101726.25;4885650;29;20037;-78
2023/04/27 10:01:28;;;;;;;5.10;3.63;;;;;;;13.98;46.05;101725.63;4880180;29;20128;-77
2023/04/27 10:04:10;;;;;;;7.88;4.15;;;;;;;13.96;45.88;101719.38;4874638;29;20532;-77
2023/04/27 10:06:51;;;;;;;6.07;4.07;;;;;;;14.23;46.39;101725.56;4873912;29;20095;-79
2023/04/27 10:09:22;;;;;;;10.05;4.22;;;;;;;13.91;46.70;101718.00;4908932;29;20055;-79
2023/04/27 10:11:48;;;;;;;7.45;4.00;;;;;;;14.37;44.91;101719.81;4882412;29;20088;-79
2023/04/27 10:14:19;;;;;;;10.02;4.07;;;;;;;14.51;47.81;101719.56;4894201;29;20044;-77
2023/04/27 10:17:09;;;;;;;7.97;3.58;;;;;;;15.10;45.59;101713.84;4910923;29;20118;-78
2023/04/27 10:19:35;;;;;;;11.43;3.85;;;;;;;15.11;45.04;101712.84;4898912;29;20453;-79
2023/04/27 10:22:06;;;;;;;7.97;3.17;;;;;;;15.12;44.79;101704.44;4879688;29;20036;-78
2023/04/27 10:24:40;;;;;;;9.48;3.90;;;;;;;14.58;45.75;101713.56;4884625;29;20489;-76
2023/04/27 10:27:10;;;;;;;7.68;3.60;;;;;;;14.76;43.98;101711.16;4893052;29;20033;-77
2023/04/27 10:29:43;;;;;;;7.43;3.90;;;;;;;14.78;41.87;101707.28;4907676;29;20583;-78
2023/04/27 10:32:24;;;;;;;7.75;4.13;;;;;;;14.59;43.55;101709.78;4898576;29;20469;-77
2023/04/27 10:34:52;;;;;;;10.73;4.00;;;;;;;14.26;44.19;101712.41;4909062;29;20064;-77
2023/04/27 10:37:24;;;;;;;6.32;4.00;;;;;;;14.10;42.84;101711.88;4908732;29;20043;-78
2023/04/27 10:39:49;;;;;;;10.20;3.45;;;;;;;14.66;42.39;101719.34;4893350;29;20040;-77
2023/04/27 10:42:28;;;;;;;5.13;3.55;;;;;;;14.63;44.06;101717.69;4888715;29;20044;-77
2023/04/27 10:44:56;;;;;;;5.60;3.90;;;;;;;15.15;41.15;101717.97;4895654;29;20048;-76
2023/04/27 10:47:23;;;;;;;8.60;3.88;;;;;;;15.07;43.23;101709.47;4895062;29;20120;-78
2023/04/27 10:49:51;;;;;;;6.32;3.60;;;;;;;14.85;46.15;101716.78;4888075;29;20216;-77
2023/04/27 10:52:17;;;;;;;6.68;4.00;;;;;;;14.72;42.25;101709.66;4898958;29;20044;-77
2023/04/27 10:54:46;;;;;;;9.82;3.75;;;;;;;14.52;43.09;101712.16;4883427;29;20373;-76
2023/04/27 10:57:15;;;;;;;7.70;4.13;;;;;;;14.24;42.80;101703.41;4905257;29;20060;-78
2023/04/27 10:59:54;;;;;;;7.82;3.88;;;;;;;14.96;45.04;101692.97;4891945;29;20045;-77
2023/04/27 11:02:27;;;;;;;13.45;3.78;;;;;;;15.53;42.42;101702.78;4896519;29;20378;-78
2023/04/27 11:04:54;;;;;;;10.18;3.70;;;;;;;15.00;42.65;101698.09;4875155;29;20044;-78
2023/04/27 11:07:27;;;;;;;14.05;4.40;;;;;;;14.87;43.94;101698.25;4888985;29;20041;-80
2023/04/27 11:09:52;;;;;;;7.95;3.78;;;;;;;15.23;42.92;101687.84;4882541;29;20062;-79
2023/04/27 11:12:18;;;;;;;7.35;4.18;;;;;;;15.51;43.22;101687.34;4893778;29;20048;-79
2023/04/27 11:14:43;;;;;;;5.25;3.72;;;;;;;15.31;44.49;101672.50;4883888;29;20127;-77
2023/04/27 11:17:09;;;;;;;6.20;3.85;;;;;;;14.80;43.35;101685.97;4881239;29;20067;-78
2023/04/27 11:19:47;;;;;;;6.85;3.90;;;;;;;15.03;41.73;101675.75;4882643;29;20045;-78